sensor_id;sensor_type;location;lat;lon;timestamp;temperature;humidity
13591;DHT22;6866;50.778;7.206;2023-01-29T00:01:40;-0.30;99.90
13591;DHT22;6866;50.778;7.206;2023-01-29T00:04:06;-0.30;99.90
13591;DHT22;6866;50.778;7.206;2023-01-29T00:06:31;-0.30;99.90
13591;DHT22;6866;50.778;7.206;2023-01-29T00:08:57;-0.40;99.90
13591;DHT22;6866;50.778;7.206;2023-01-29T00:11:23;-0.40;99.90
13591;DHT22;6866;50.778;7.206;2023-01-29T00:13:50;-0.40;99.90
13591;DHT22;6866;50.778;7.206;2023-01-29T00:16:15;-0.30;99.90
13591;DHT22;6866;50.778;7.206;2023-01-29T00:18:41;-0.50;99.90
13591;DHT22;6866;50.778;7.206;2023-01-29T00:21:14;-0.50;99.90
13591;DHT22;6866;50.778;7.206;2023-01-29T00:24:11;-0.70;99.90
13591;DHT22;6866;50.778;7.206;2023-01-29T00:26:37;-0.50;99.90
13591;DHT22;6866;50.778;7.206;2023-01-29T00:29:06;-0.40;99.90
13591;DHT22;6866;50.778;7.206;2023-01-29T00:31:32;-0.40;99.90
13591;DHT22;6866;50.778;7.206;2023-01-29T00:33:58;-0.40;99.90
13591;DHT22;6866;50.778;7.206;2023-01-29T00:36:24;-0.50;99.90
13591;DHT22;6866;50.778;7.206;2023-01-29T00:38:54;-0.40;99.90
13591;DHT22;6866;50.778;7.206;2023-01-29T00:41:27;-0.60;99.90
13591;DHT22;6866;50.778;7.206;2023-01-29T00:44:12;-0.70;99.90
13591;DHT22;6866;50.778;7.206;2023-01-29T00:46:56;-0.80;99.90
13591;DHT22;6866;50.778;7.206;2023-01-29T00:49:21;-0.70;99.90
13591;DHT22;6866;50.778;7.206;2023-01-29T00:51:47;-0.70;99.90
13591;DHT22;6866;50.778;7.206;2023-01-29T00:54:32;-0.70;99.90
13591;DHT22;6866;50.778;7.206;2023-01-29T00:56:58;-0.60;99.90
13591;DHT22;6866;50.778;7.206;2023-01-29T00:59:24;-0.60;99.90
13591;DHT22;6866;50.778;7.206;2023-01-29T01:01:49;-0.60;99.90
13591;DHT22;6866;50.778;7.206;2023-01-29T01:04:33;-0.70;99.90
13591;DHT22;6866;50.778;7.206;2023-01-29T01:06:59;-0.60;99.90
13591;DHT22;6866;50.778;7.206;2023-01-29T01:09:24;-0.60;99.90
13591;DHT22;6866;50.778;7.206;2023-01-29T01:12:08;-0.60;99.90
13591;DHT22;6866;50.778;7.206;2023-01-29T01:14:34;-0.60;99.90
13591;DHT22;6866;50.778;7.206;2023-01-29T01:17:00;-0.70;99.90
13591;DHT22;6866;50.778;7.206;2023-01-29T01:19:26;-0.80;99.90
13591;DHT22;6866;50.778;7.206;2023-01-29T01:21:51;-0.90;99.90
13591;DHT22;6866;50.778;7.206;2023-01-29T01:24:17;-0.90;99.90
13591;DHT22;6866;50.778;7.206;2023-01-29T01:26:44;-0.90;99.90
13591;DHT22;6866;50.778;7.206;2023-01-29T01:29:10;-0.80;99.90
13591;DHT22;6866;50.778;7.206;2023-01-29T01:31:35;-0.90;99.90
13591;DHT22;6866;50.778;7.206;2023-01-29T01:34:01;-1.10;99.90
13591;DHT22;6866;50.778;7.206;2023-01-29T01:36:26;-0.90;99.90
13591;DHT22;6866;50.778;7.206;2023-01-29T01:38:52;-0.80;99.90
13591;DHT22;6866;50.778;7.206;2023-01-29T01:41:20;-0.80;99.90
13591;DHT22;6866;50.778;7.206;2023-01-29T01:43:57;-0.90;99.90
13591;DHT22;6866;50.778;7.206;2023-01-29T01:46:36;-1.00;99.90
13591;DHT22;6866;50.778;7.206;2023-01-29T01:49:03;-1.00;99.90
13591;DHT22;6866;50.778;7.206;2023-01-29T01:51:31;-0.90;99.90
13591;DHT22;6866;50.778;7.206;2023-01-29T01:54:06;-0.80;99.90
13591;DHT22;6866;50.778;7.206;2023-01-29T01:56:35;-0.80;99.90
13591;DHT22;6866;50.778;7.206;2023-01-29T01:59:12;-0.90;99.90
13591;DHT22;6866;50.778;7.206;2023-01-29T02:04:16;-1.10;99.90
13591;DHT22;6866;50.778;7.206;2023-01-29T02:07:02;-1.00;99.90
13591;DHT22;6866;50.778;7.206;2023-01-29T02:09:52;-0.90;99.90
13591;DHT22;6866;50.778;7.206;2023-01-29T02:12:20;-0.80;99.90
13591;DHT22;6866;50.778;7.206;2023-01-29T02:14:46;-0.80;99.90
13591;DHT22;6866;50.778;7.206;2023-01-29T02:17:13;-0.80;99.90
13591;DHT22;6866;50.778;7.206;2023-01-29T02:28:05;-0.90;99.90
13591;DHT22;6866;50.778;7.206;2023-01-29T02:30:43;-0.90;99.90
13591;DHT22;6866;50.778;7.206;2023-01-29T02:33:34;-0.90;99.90
13591;DHT22;6866;50.778;7.206;2023-01-29T02:36:30;-1.00;99.90
13591;DHT22;6866;50.778;7.206;2023-01-29T02:39:16;-1.00;99.90
13591;DHT22;6866;50.778;7.206;2023-01-29T02:44:58;-1.00;99.90
13591;DHT22;6866;50.778;7.206;2023-01-29T02:47:29;-1.00;99.90
13591;DHT22;6866;50.778;7.206;2023-01-29T02:50:15;-1.10;99.90
13591;DHT22;6866;50.778;7.206;2023-01-29T02:53:04;-1.10;99.90
13591;DHT22;6866;50.778;7.206;2023-01-29T02:55:37;-1.30;99.90
13591;DHT22;6866;50.778;7.206;2023-01-29T03:00:51;-1.40;99.90
13591;DHT22;6866;50.778;7.206;2023-01-29T03:03:25;-1.20;99.90
13591;DHT22;6866;50.778;7.206;2023-01-29T03:08:26;-1.00;99.90
13591;DHT22;6866;50.778;7.206;2023-01-29T03:11:03;-1.10;99.90
13591;DHT22;6866;50.778;7.206;2023-01-29T03:16:18;-1.10;99.90
13591;DHT22;6866;50.778;7.206;2023-01-29T03:18:55;-1.10;99.90
13591;DHT22;6866;50.778;7.206;2023-01-29T03:21:35;-1.20;99.90
13591;DHT22;6866;50.778;7.206;2023-01-29T03:24:18;-1.30;99.90
13591;DHT22;6866;50.778;7.206;2023-01-29T03:27:07;-1.20;99.90
13591;DHT22;6866;50.778;7.206;2023-01-29T03:29:53;-1.10;99.90
13591;DHT22;6866;50.778;7.206;2023-01-29T03:32:38;-1.30;99.90
13591;DHT22;6866;50.778;7.206;2023-01-29T03:35:06;-1.30;99.90
13591;DHT22;6866;50.778;7.206;2023-01-29T03:37:42;-1.20;99.90
13591;DHT22;6866;50.778;7.206;2023-01-29T03:40:10;-1.00;99.90
13591;DHT22;6866;50.778;7.206;2023-01-29T03:45:55;-1.20;99.90
13591;DHT22;6866;50.778;7.206;2023-01-29T03:48:34;-1.20;99.90
13591;DHT22;6866;50.778;7.206;2023-01-29T03:51:29;-1.30;99.90
13591;DHT22;6866;50.778;7.206;2023-01-29T03:54:09;-1.30;99.90
13591;DHT22;6866;50.778;7.206;2023-01-29T04:01:58;-1.10;99.90
13591;DHT22;6866;50.778;7.206;2023-01-29T04:04:30;-1.20;99.90
13591;DHT22;6866;50.778;7.206;2023-01-29T04:07:12;-1.40;99.90
13591;DHT22;6866;50.778;7.206;2023-01-29T04:09:58;-1.40;99.90
13591;DHT22;6866;50.778;7.206;2023-01-29T04:12:29;-1.20;99.90
13591;DHT22;6866;50.778;7.206;2023-01-29T04:14:58;-1.20;99.90
13591;DHT22;6866;50.778;7.206;2023-01-29T04:17:28;-1.20;99.90
13591;DHT22;6866;50.778;7.206;2023-01-29T04:19:58;-1.30;99.90
13591;DHT22;6866;50.778;7.206;2023-01-29T04:22:33;-1.50;99.90
13591;DHT22;6866;50.778;7.206;2023-01-29T04:25:03;-1.40;99.90
13591;DHT22;6866;50.778;7.206;2023-01-29T04:27:56;-1.30;99.90
13591;DHT22;6866;50.778;7.206;2023-01-29T04:30:37;-1.40;99.90
13591;DHT22;6866;50.778;7.206;2023-01-29T04:33:26;-1.50;99.90
13591;DHT22;6866;50.778;7.206;2023-01-29T04:36:21;-1.50;99.90
13591;DHT22;6866;50.778;7.206;2023-01-29T04:39:17;-1.40;99.90
13591;DHT22;6866;50.778;7.206;2023-01-29T04:44:22;-1.30;99.90
13591;DHT22;6866;50.778;7.206;2023-01-29T04:52:29;-1.50;99.90
13591;DHT22;6866;50.778;7.206;2023-01-29T04:55:24;-1.50;99.90
13591;DHT22;6866;50.778;7.206;2023-01-29T04:58:02;-1.40;99.90
13591;DHT22;6866;50.778;7.206;2023-01-29T05:00:33;-1.40;99.90
13591;DHT22;6866;50.778;7.206;2023-01-29T05:03:00;-1.50;99.90
13591;DHT22;6866;50.778;7.206;2023-01-29T05:05:27;-1.80;99.90
13591;DHT22;6866;50.778;7.206;2023-01-29T05:07:54;-1.70;99.90
13591;DHT22;6866;50.778;7.206;2023-01-29T05:10:22;-1.50;99.90
13591;DHT22;6866;50.778;7.206;2023-01-29T05:12:54;-1.40;99.90
13591;DHT22;6866;50.778;7.206;2023-01-29T05:15:27;-1.50;99.90
13591;DHT22;6866;50.778;7.206;2023-01-29T05:17:54;-1.60;99.90
13591;DHT22;6866;50.778;7.206;2023-01-29T05:20:26;-1.50;99.90
13591;DHT22;6866;50.778;7.206;2023-01-29T05:22:52;-1.40;99.90
13591;DHT22;6866;50.778;7.206;2023-01-29T05:25:24;-1.50;99.90
13591;DHT22;6866;50.778;7.206;2023-01-29T05:27:51;-1.60;99.90
13591;DHT22;6866;50.778;7.206;2023-01-29T05:30:38;-1.90;99.90
13591;DHT22;6866;50.778;7.206;2023-01-29T05:33:20;-1.90;99.90
13591;DHT22;6866;50.778;7.206;2023-01-29T05:35:45;-1.70;99.90
13591;DHT22;6866;50.778;7.206;2023-01-29T05:38:12;-1.70;99.90
13591;DHT22;6866;50.778;7.206;2023-01-29T05:40:37;-1.90;99.90
13591;DHT22;6866;50.778;7.206;2023-01-29T05:43:03;-1.70;99.90
13591;DHT22;6866;50.778;7.206;2023-01-29T05:45:30;-1.70;99.90
13591;DHT22;6866;50.778;7.206;2023-01-29T05:47:59;-1.70;99.90
13591;DHT22;6866;50.778;7.206;2023-01-29T05:50:26;-2.00;99.90
13591;DHT22;6866;50.778;7.206;2023-01-29T05:52:59;-1.80;99.90
13591;DHT22;6866;50.778;7.206;2023-01-29T05:55:25;-2.00;99.90
13591;DHT22;6866;50.778;7.206;2023-01-29T05:57:51;-1.70;99.90
13591;DHT22;6866;50.778;7.206;2023-01-29T06:00:17;-1.70;99.90
13591;DHT22;6866;50.778;7.206;2023-01-29T06:02:42;-1.60;99.90
13591;DHT22;6866;50.778;7.206;2023-01-29T06:05:08;-1.60;99.90
13591;DHT22;6866;50.778;7.206;2023-01-29T06:07:34;-1.50;99.90
13591;DHT22;6866;50.778;7.206;2023-01-29T06:10:00;-1.60;99.90
13591;DHT22;6866;50.778;7.206;2023-01-29T06:12:26;-1.90;99.90
13591;DHT22;6866;50.778;7.206;2023-01-29T06:14:52;-1.90;99.90
13591;DHT22;6866;50.778;7.206;2023-01-29T06:17:17;-1.90;99.90
13591;DHT22;6866;50.778;7.206;2023-01-29T06:19:43;-1.80;99.90
13591;DHT22;6866;50.778;7.206;2023-01-29T06:22:09;-1.90;99.90
13591;DHT22;6866;50.778;7.206;2023-01-29T06:24:34;-1.90;99.90
13591;DHT22;6866;50.778;7.206;2023-01-29T06:27:00;-1.90;99.90
13591;DHT22;6866;50.778;7.206;2023-01-29T06:29:25;-1.70;99.90
13591;DHT22;6866;50.778;7.206;2023-01-29T06:31:51;-1.70;99.90
13591;DHT22;6866;50.778;7.206;2023-01-29T06:34:16;-1.80;99.90
13591;DHT22;6866;50.778;7.206;2023-01-29T06:36:42;-2.00;99.90
13591;DHT22;6866;50.778;7.206;2023-01-29T06:39:08;-1.90;99.90
13591;DHT22;6866;50.778;7.206;2023-01-29T06:41:33;-1.80;99.90
13591;DHT22;6866;50.778;7.206;2023-01-29T06:43:59;-1.90;99.90
13591;DHT22;6866;50.778;7.206;2023-01-29T06:46:25;-1.90;99.90
13591;DHT22;6866;50.778;7.206;2023-01-29T06:48:50;-1.80;99.90
13591;DHT22;6866;50.778;7.206;2023-01-29T06:51:16;-1.70;99.90
13591;DHT22;6866;50.778;7.206;2023-01-29T06:53:41;-1.70;99.90
13591;DHT22;6866;50.778;7.206;2023-01-29T06:56:07;-2.00;99.90
13591;DHT22;6866;50.778;7.206;2023-01-29T06:58:36;-1.80;99.90
13591;DHT22;6866;50.778;7.206;2023-01-29T07:01:03;-1.80;99.90
13591;DHT22;6866;50.778;7.206;2023-01-29T07:03:29;-1.90;99.90
13591;DHT22;6866;50.778;7.206;2023-01-29T07:05:54;-1.70;99.90
13591;DHT22;6866;50.778;7.206;2023-01-29T07:08:20;-1.70;99.90
13591;DHT22;6866;50.778;7.206;2023-01-29T07:10:47;-1.60;99.90
13591;DHT22;6866;50.778;7.206;2023-01-29T07:13:13;-1.50;99.90
13591;DHT22;6866;50.778;7.206;2023-01-29T07:15:38;-1.60;99.90
13591;DHT22;6866;50.778;7.206;2023-01-29T07:18:04;-1.50;99.90
13591;DHT22;6866;50.778;7.206;2023-01-29T07:20:38;-1.40;99.90
13591;DHT22;6866;50.778;7.206;2023-01-29T07:23:04;-1.50;99.90
13591;DHT22;6866;50.778;7.206;2023-01-29T07:25:30;-1.40;99.90
13591;DHT22;6866;50.778;7.206;2023-01-29T07:27:55;-1.30;99.90
13591;DHT22;6866;50.778;7.206;2023-01-29T07:30:24;-1.40;99.90
13591;DHT22;6866;50.778;7.206;2023-01-29T07:32:49;-1.60;99.90
13591;DHT22;6866;50.778;7.206;2023-01-29T07:35:15;-1.30;99.90
13591;DHT22;6866;50.778;7.206;2023-01-29T07:37:40;-1.10;99.90
13591;DHT22;6866;50.778;7.206;2023-01-29T07:40:06;-1.30;99.90
13591;DHT22;6866;50.778;7.206;2023-01-29T07:42:36;-1.30;99.90
13591;DHT22;6866;50.778;7.206;2023-01-29T07:45:03;-1.10;99.90
13591;DHT22;6866;50.778;7.206;2023-01-29T07:47:29;-1.20;99.90
13591;DHT22;6866;50.778;7.206;2023-01-29T07:49:54;-1.10;99.90
13591;DHT22;6866;50.778;7.206;2023-01-29T07:52:20;-1.00;99.90
13591;DHT22;6866;50.778;7.206;2023-01-29T07:54:45;-1.00;99.90
13591;DHT22;6866;50.778;7.206;2023-01-29T07:57:11;-1.10;99.90
13591;DHT22;6866;50.778;7.206;2023-01-29T07:59:36;-1.00;99.90
13591;DHT22;6866;50.778;7.206;2023-01-29T08:02:02;-1.00;99.90
13591;DHT22;6866;50.778;7.206;2023-01-29T08:04:27;-0.90;99.90
13591;DHT22;6866;50.778;7.206;2023-01-29T08:06:53;-0.90;99.90
13591;DHT22;6866;50.778;7.206;2023-01-29T08:09:18;-0.80;99.90
13591;DHT22;6866;50.778;7.206;2023-01-29T08:11:44;-0.90;99.90
13591;DHT22;6866;50.778;7.206;2023-01-29T08:14:09;-0.80;99.90
13591;DHT22;6866;50.778;7.206;2023-01-29T08:16:35;-0.70;99.90
13591;DHT22;6866;50.778;7.206;2023-01-29T08:19:01;-0.80;99.90
13591;DHT22;6866;50.778;7.206;2023-01-29T08:21:26;-0.60;99.90
13591;DHT22;6866;50.778;7.206;2023-01-29T08:23:52;-0.50;99.90
13591;DHT22;6866;50.778;7.206;2023-01-29T08:26:18;-0.50;99.90
13591;DHT22;6866;50.778;7.206;2023-01-29T08:28:43;-0.20;99.90
13591;DHT22;6866;50.778;7.206;2023-01-29T08:31:14;-0.20;99.90
13591;DHT22;6866;50.778;7.206;2023-01-29T08:33:40;-0.30;99.90
13591;DHT22;6866;50.778;7.206;2023-01-29T08:36:06;-0.30;99.90
13591;DHT22;6866;50.778;7.206;2023-01-29T08:38:32;-0.30;99.90
13591;DHT22;6866;50.778;7.206;2023-01-29T08:40:58;-0.70;99.90
13591;DHT22;6866;50.778;7.206;2023-01-29T08:43:23;-0.20;99.90
13591;DHT22;6866;50.778;7.206;2023-01-29T08:45:49;-0.20;99.90
13591;DHT22;6866;50.778;7.206;2023-01-29T08:48:14;-0.20;99.90
13591;DHT22;6866;50.778;7.206;2023-01-29T08:50:40;-0.10;99.90
13591;DHT22;6866;50.778;7.206;2023-01-29T08:53:07;0.20;99.90
13591;DHT22;6866;50.778;7.206;2023-01-29T08:55:38;0.10;99.90
13591;DHT22;6866;50.778;7.206;2023-01-29T08:58:05;0.00;99.90
13591;DHT22;6866;50.778;7.206;2023-01-29T09:00:32;-0.10;99.90
13591;DHT22;6866;50.778;7.206;2023-01-29T09:02:57;0.10;99.90
13591;DHT22;6866;50.778;7.206;2023-01-29T09:05:24;0.10;99.90
13591;DHT22;6866;50.778;7.206;2023-01-29T09:07:50;0.10;99.90
13591;DHT22;6866;50.778;7.206;2023-01-29T09:10:15;0.10;99.90
13591;DHT22;6866;50.778;7.206;2023-01-29T09:12:41;0.00;99.90
13591;DHT22;6866;50.778;7.206;2023-01-29T09:15:07;0.10;99.90
13591;DHT22;6866;50.778;7.206;2023-01-29T09:17:33;0.30;99.90
13591;DHT22;6866;50.778;7.206;2023-01-29T09:19:59;0.40;99.90
13591;DHT22;6866;50.778;7.206;2023-01-29T09:22:24;0.40;99.90
13591;DHT22;6866;50.778;7.206;2023-01-29T09:24:50;0.30;99.90
13591;DHT22;6866;50.778;7.206;2023-01-29T09:27:15;0.60;99.90
13591;DHT22;6866;50.778;7.206;2023-01-29T09:29:41;0.60;99.90
13591;DHT22;6866;50.778;7.206;2023-01-29T09:32:06;0.70;99.90
13591;DHT22;6866;50.778;7.206;2023-01-29T09:34:32;0.50;99.90
13591;DHT22;6866;50.778;7.206;2023-01-29T09:36:57;0.50;99.90
13591;DHT22;6866;50.778;7.206;2023-01-29T09:39:23;0.70;99.90
13591;DHT22;6866;50.778;7.206;2023-01-29T09:45:15;0.50;99.90
13591;DHT22;6866;50.778;7.206;2023-01-29T09:47:43;0.60;99.90
13591;DHT22;6866;50.778;7.206;2023-01-29T09:50:30;1.00;99.90
13591;DHT22;6866;50.778;7.206;2023-01-29T09:53:27;1.10;99.90
13591;DHT22;6866;50.778;7.206;2023-01-29T09:56:04;1.20;99.90
13591;DHT22;6866;50.778;7.206;2023-01-29T09:58:39;1.30;99.90
13591;DHT22;6866;50.778;7.206;2023-01-29T10:01:14;1.30;99.90
13591;DHT22;6866;50.778;7.206;2023-01-29T10:04:35;1.30;99.90
13591;DHT22;6866;50.778;7.206;2023-01-29T10:12:35;1.60;99.90
13591;DHT22;6866;50.778;7.206;2023-01-29T10:15:16;1.70;99.90
13591;DHT22;6866;50.778;7.206;2023-01-29T10:23:48;2.10;99.90
13591;DHT22;6866;50.778;7.206;2023-01-29T10:26:15;2.10;99.90
13591;DHT22;6866;50.778;7.206;2023-01-29T10:28:44;2.10;99.90
13591;DHT22;6866;50.778;7.206;2023-01-29T10:31:19;2.20;99.90
13591;DHT22;6866;50.778;7.206;2023-01-29T10:33:52;2.30;99.90
13591;DHT22;6866;50.778;7.206;2023-01-29T10:36:35;2.40;99.90
13591;DHT22;6866;50.778;7.206;2023-01-29T10:39:02;2.50;99.90
13591;DHT22;6866;50.778;7.206;2023-01-29T10:50:47;2.90;98.30
13591;DHT22;6866;50.778;7.206;2023-01-29T10:53:24;2.90;98.00
13591;DHT22;6866;50.778;7.206;2023-01-29T10:59:00;3.00;97.90
13591;DHT22;6866;50.778;7.206;2023-01-29T11:01:29;3.20;98.60
13591;DHT22;6866;50.778;7.206;2023-01-29T11:04:00;3.30;96.00
13591;DHT22;6866;50.778;7.206;2023-01-29T11:06:35;3.30;95.60
13591;DHT22;6866;50.778;7.206;2023-01-29T11:11:53;3.00;96.90
13591;DHT22;6866;50.778;7.206;2023-01-29T11:14:24;3.10;96.60
13591;DHT22;6866;50.778;7.206;2023-01-29T11:16:51;3.00;96.20
13591;DHT22;6866;50.778;7.206;2023-01-29T11:19:17;2.90;97.90
13591;DHT22;6866;50.778;7.206;2023-01-29T11:21:58;2.80;96.80
13591;DHT22;6866;50.778;7.206;2023-01-29T11:24:24;2.90;97.20
13591;DHT22;6866;50.778;7.206;2023-01-29T11:26:53;3.00;97.30
13591;DHT22;6866;50.778;7.206;2023-01-29T11:29:44;2.90;96.20
13591;DHT22;6866;50.778;7.206;2023-01-29T11:35:06;2.90;96.70
13591;DHT22;6866;50.778;7.206;2023-01-29T11:37:44;3.30;96.60
13591;DHT22;6866;50.778;7.206;2023-01-29T11:42:49;3.50;98.00
13591;DHT22;6866;50.778;7.206;2023-01-29T11:45:28;3.40;98.60
13591;DHT22;6866;50.778;7.206;2023-01-29T11:47:57;3.50;98.70
13591;DHT22;6866;50.778;7.206;2023-01-29T11:50:31;3.60;96.90
13591;DHT22;6866;50.778;7.206;2023-01-29T11:52:58;3.50;96.00
13591;DHT22;6866;50.778;7.206;2023-01-29T11:55:33;3.50;96.80
13591;DHT22;6866;50.778;7.206;2023-01-29T11:58:04;3.50;96.80
13591;DHT22;6866;50.778;7.206;2023-01-29T12:00:33;3.50;96.30
13591;DHT22;6866;50.778;7.206;2023-01-29T12:03:10;3.70;96.90
13591;DHT22;6866;50.778;7.206;2023-01-29T12:05:38;3.70;95.40
13591;DHT22;6866;50.778;7.206;2023-01-29T12:08:14;3.90;95.50
13591;DHT22;6866;50.778;7.206;2023-01-29T12:10:42;3.70;94.50
13591;DHT22;6866;50.778;7.206;2023-01-29T12:15:43;3.70;94.70
13591;DHT22;6866;50.778;7.206;2023-01-29T12:18:29;3.80;95.80
13591;DHT22;6866;50.778;7.206;2023-01-29T12:21:04;3.90;94.70
13591;DHT22;6866;50.778;7.206;2023-01-29T12:26:08;4.00;94.60
13591;DHT22;6866;50.778;7.206;2023-01-29T12:28:50;4.00;94.40
13591;DHT22;6866;50.778;7.206;2023-01-29T12:31:32;4.20;93.80
13591;DHT22;6866;50.778;7.206;2023-01-29T12:36:40;4.20;92.10
13591;DHT22;6866;50.778;7.206;2023-01-29T12:39:16;4.10;92.20
13591;DHT22;6866;50.778;7.206;2023-01-29T12:42:09;4.10;91.50
13591;DHT22;6866;50.778;7.206;2023-01-29T12:45:14;4.20;90.50
13591;DHT22;6866;50.778;7.206;2023-01-29T12:47:35;4.40;90.30
13591;DHT22;6866;50.778;7.206;2023-01-29T12:50:17;4.30;90.20
13591;DHT22;6866;50.778;7.206;2023-01-29T12:55:37;4.20;90.10
13591;DHT22;6866;50.778;7.206;2023-01-29T12:58:13;4.50;89.80
13591;DHT22;6866;50.778;7.206;2023-01-29T13:00:43;4.60;87.70
13591;DHT22;6866;50.778;7.206;2023-01-29T13:03:42;4.70;87.70
13591;DHT22;6866;50.778;7.206;2023-01-29T13:06:12;4.70;85.10
13591;DHT22;6866;50.778;7.206;2023-01-29T13:08:47;4.70;84.80
13591;DHT22;6866;50.778;7.206;2023-01-29T13:11:37;4.70;85.20
13591;DHT22;6866;50.778;7.206;2023-01-29T13:14:17;4.50;85.90
13591;DHT22;6866;50.778;7.206;2023-01-29T13:16:46;4.60;88.60
13591;DHT22;6866;50.778;7.206;2023-01-29T13:19:33;4.90;88.00
13591;DHT22;6866;50.778;7.206;2023-01-29T13:22:02;5.00;87.40
13591;DHT22;6866;50.778;7.206;2023-01-29T13:24:38;5.10;85.80
13591;DHT22;6866;50.778;7.206;2023-01-29T13:27:05;5.00;87.50
13591;DHT22;6866;50.778;7.206;2023-01-29T13:29:32;5.00;85.40
13591;DHT22;6866;50.778;7.206;2023-01-29T13:32:00;5.10;85.30
13591;DHT22;6866;50.778;7.206;2023-01-29T13:34:29;5.10;87.20
13591;DHT22;6866;50.778;7.206;2023-01-29T13:36:58;5.20;86.80
13591;DHT22;6866;50.778;7.206;2023-01-29T13:41:56;5.10;85.60
13591;DHT22;6866;50.778;7.206;2023-01-29T13:44:36;4.90;86.60
13591;DHT22;6866;50.778;7.206;2023-01-29T13:47:20;4.90;87.00
13591;DHT22;6866;50.778;7.206;2023-01-29T13:49:55;5.00;88.00
13591;DHT22;6866;50.778;7.206;2023-01-29T13:55:19;4.90;87.60
13591;DHT22;6866;50.778;7.206;2023-01-29T13:57:55;5.00;89.10
13591;DHT22;6866;50.778;7.206;2023-01-29T14:10:25;5.10;85.60
13591;DHT22;6866;50.778;7.206;2023-01-29T14:12:53;5.20;85.70
13591;DHT22;6866;50.778;7.206;2023-01-29T14:15:25;5.30;86.80
13591;DHT22;6866;50.778;7.206;2023-01-29T14:17:55;5.20;85.90
13591;DHT22;6866;50.778;7.206;2023-01-29T14:20:33;5.00;86.40
13591;DHT22;6866;50.778;7.206;2023-01-29T14:23:00;5.00;86.60
13591;DHT22;6866;50.778;7.206;2023-01-29T14:25:33;4.90;87.20
13591;DHT22;6866;50.778;7.206;2023-01-29T14:28:00;4.90;86.90
13591;DHT22;6866;50.778;7.206;2023-01-29T14:30:31;4.90;85.60
13591;DHT22;6866;50.778;7.206;2023-01-29T14:32:59;4.90;87.70
13591;DHT22;6866;50.778;7.206;2023-01-29T14:35:28;4.90;87.30
13591;DHT22;6866;50.778;7.206;2023-01-29T14:38:00;4.90;87.10
13591;DHT22;6866;50.778;7.206;2023-01-29T14:40:28;5.00;87.80
13591;DHT22;6866;50.778;7.206;2023-01-29T14:45:31;4.90;86.90
13591;DHT22;6866;50.778;7.206;2023-01-29T14:56:26;4.80;89.00
13591;DHT22;6866;50.778;7.206;2023-01-29T14:59:23;4.90;90.50
13591;DHT22;6866;50.778;7.206;2023-01-29T15:01:55;4.80;90.30
13591;DHT22;6866;50.778;7.206;2023-01-29T15:10:50;4.90;90.50
13591;DHT22;6866;50.778;7.206;2023-01-29T15:15:32;4.70;91.20
13591;DHT22;6866;50.778;7.206;2023-01-29T15:18:07;4.70;90.70
13591;DHT22;6866;50.778;7.206;2023-01-29T15:20:38;4.70;91.10
13591;DHT22;6866;50.778;7.206;2023-01-29T15:23:25;4.70;90.30
13591;DHT22;6866;50.778;7.206;2023-01-29T15:25:54;4.60;90.60
13591;DHT22;6866;50.778;7.206;2023-01-29T15:28:21;4.60;91.10
13591;DHT22;6866;50.778;7.206;2023-01-29T15:30:54;4.60;90.80
13591;DHT22;6866;50.778;7.206;2023-01-29T15:33:21;4.60;91.80
13591;DHT22;6866;50.778;7.206;2023-01-29T15:35:47;4.60;90.70
13591;DHT22;6866;50.778;7.206;2023-01-29T15:38:18;4.60;91.60
13591;DHT22;6866;50.778;7.206;2023-01-29T15:40:58;4.60;92.30
13591;DHT22;6866;50.778;7.206;2023-01-29T15:43:35;4.60;91.70
13591;DHT22;6866;50.778;7.206;2023-01-29T15:46:21;4.50;91.90
13591;DHT22;6866;50.778;7.206;2023-01-29T15:48:49;4.50;91.40
13591;DHT22;6866;50.778;7.206;2023-01-29T15:51:18;4.40;91.70
13591;DHT22;6866;50.778;7.206;2023-01-29T15:53:50;4.40;91.90
13591;DHT22;6866;50.778;7.206;2023-01-29T15:56:22;4.40;92.40
13591;DHT22;6866;50.778;7.206;2023-01-29T15:58:49;4.50;92.30
13591;DHT22;6866;50.778;7.206;2023-01-29T16:01:16;4.50;92.60
13591;DHT22;6866;50.778;7.206;2023-01-29T16:03:43;4.50;92.80
13591;DHT22;6866;50.778;7.206;2023-01-29T16:06:08;4.60;92.80
13591;DHT22;6866;50.778;7.206;2023-01-29T16:08:34;4.60;92.90
13591;DHT22;6866;50.778;7.206;2023-01-29T16:11:02;4.50;92.70
13591;DHT22;6866;50.778;7.206;2023-01-29T16:13:34;4.50;92.60
13591;DHT22;6866;50.778;7.206;2023-01-29T16:16:03;4.50;93.30
13591;DHT22;6866;50.778;7.206;2023-01-29T16:18:38;4.40;93.00
13591;DHT22;6866;50.778;7.206;2023-01-29T16:21:14;4.50;92.90
13591;DHT22;6866;50.778;7.206;2023-01-29T16:24:08;4.40;92.60
13591;DHT22;6866;50.778;7.206;2023-01-29T16:26:41;4.40;92.50
13591;DHT22;6866;50.778;7.206;2023-01-29T16:29:10;4.30;93.10
13591;DHT22;6866;50.778;7.206;2023-01-29T16:31:37;4.40;92.80
13591;DHT22;6866;50.778;7.206;2023-01-29T16:34:12;4.40;93.10
13591;DHT22;6866;50.778;7.206;2023-01-29T16:36:44;4.40;93.50
13591;DHT22;6866;50.778;7.206;2023-01-29T16:39:18;4.30;93.50
13591;DHT22;6866;50.778;7.206;2023-01-29T16:44:34;4.40;94.20
13591;DHT22;6866;50.778;7.206;2023-01-29T16:47:09;4.40;94.40
13591;DHT22;6866;50.778;7.206;2023-01-29T16:52:34;4.30;94.00
13591;DHT22;6866;50.778;7.206;2023-01-29T16:55:17;4.30;93.90
13591;DHT22;6866;50.778;7.206;2023-01-29T16:57:49;4.30;94.00
13591;DHT22;6866;50.778;7.206;2023-01-29T17:00:27;4.30;94.00
13591;DHT22;6866;50.778;7.206;2023-01-29T17:03:03;4.30;94.00
13591;DHT22;6866;50.778;7.206;2023-01-29T17:05:33;4.20;94.00
13591;DHT22;6866;50.778;7.206;2023-01-29T17:08:00;4.20;95.40
13591;DHT22;6866;50.778;7.206;2023-01-29T17:10:28;4.20;94.30
13591;DHT22;6866;50.778;7.206;2023-01-29T17:15:34;4.20;93.80
13591;DHT22;6866;50.778;7.206;2023-01-29T17:18:00;4.20;93.90
13591;DHT22;6866;50.778;7.206;2023-01-29T17:20:26;4.20;94.00
13591;DHT22;6866;50.778;7.206;2023-01-29T17:22:55;4.20;93.60
13591;DHT22;6866;50.778;7.206;2023-01-29T17:25:21;4.10;93.90
13591;DHT22;6866;50.778;7.206;2023-01-29T17:27:46;4.20;93.90
13591;DHT22;6866;50.778;7.206;2023-01-29T17:30:21;4.10;93.90
13591;DHT22;6866;50.778;7.206;2023-01-29T17:32:48;4.00;93.60
13591;DHT22;6866;50.778;7.206;2023-01-29T17:35:15;4.10;94.00
13591;DHT22;6866;50.778;7.206;2023-01-29T17:37:41;4.10;94.40
13591;DHT22;6866;50.778;7.206;2023-01-29T17:40:49;4.20;94.20
13591;DHT22;6866;50.778;7.206;2023-01-29T17:43:15;4.10;93.90
13591;DHT22;6866;50.778;7.206;2023-01-29T17:45:41;4.10;93.90
13591;DHT22;6866;50.778;7.206;2023-01-29T17:48:18;4.20;93.80
13591;DHT22;6866;50.778;7.206;2023-01-29T17:50:48;4.10;93.40
13591;DHT22;6866;50.778;7.206;2023-01-29T17:53:15;4.10;93.30
13591;DHT22;6866;50.778;7.206;2023-01-29T17:55:41;4.10;93.30
13591;DHT22;6866;50.778;7.206;2023-01-29T17:58:18;4.10;93.70
13591;DHT22;6866;50.778;7.206;2023-01-29T18:00:44;4.00;93.80
13591;DHT22;6866;50.778;7.206;2023-01-29T18:03:09;4.00;93.90
13591;DHT22;6866;50.778;7.206;2023-01-29T18:05:35;4.00;93.80
13591;DHT22;6866;50.778;7.206;2023-01-29T18:08:01;3.90;93.60
13591;DHT22;6866;50.778;7.206;2023-01-29T18:10:27;3.90;93.80
13591;DHT22;6866;50.778;7.206;2023-01-29T18:12:53;4.00;94.40
13591;DHT22;6866;50.778;7.206;2023-01-29T18:15:19;4.00;93.80
13591;DHT22;6866;50.778;7.206;2023-01-29T18:17:45;4.10;93.90
13591;DHT22;6866;50.778;7.206;2023-01-29T18:20:22;4.10;93.80
13591;DHT22;6866;50.778;7.206;2023-01-29T18:22:49;4.00;93.40
13591;DHT22;6866;50.778;7.206;2023-01-29T18:25:15;3.90;93.80
13591;DHT22;6866;50.778;7.206;2023-01-29T18:27:41;3.90;93.80
13591;DHT22;6866;50.778;7.206;2023-01-29T18:30:07;4.00;94.30